Time;durP1;ratioP1;P1;durP2;ratioP2;P2;SDS_P1;SDS_P2;PMS_P1;PMS_P2;Temp;Humidity;BMP_temperature;BMP_pressure;BME280_temperature;BME280_humidity;BME280_pressure;Samples;Min_cycle;Max_cycle;Signal;HPM_P1;HPM_P2
2023/08/31 00:02:01;;;;;;;95.43;53.85;;;17.30;90.60;;;;;;4965682;28;90799;-86
2023/08/31 00:04:26;;;;;;;94.90;53.20;;;17.30;91.00;;;;;;4965951;28;90119;-87
2023/08/31 00:06:52;;;;;;;93.32;53.05;;;17.30;91.00;;;;;;4964817;28;90251;-86
2023/08/31 00:09:18;;;;;;;94.13;53.10;;;17.30;90.60;;;;;;4968879;28;91387;-85
2023/08/31 00:11:45;;;;;;;93.75;52.85;;;17.30;90.90;;;;;;4963034;28;89341;-85
2023/08/31 00:14:10;;;;;;;94.43;53.40;;;17.30;90.40;;;;;;4967498;28;89465;-85
2023/08/31 00:16:37;;;;;;;95.40;53.53;;;17.20;90.70;;;;;;4944513;28;92869;-83
2023/08/31 00:19:02;;;;;;;94.38;53.72;;;17.30;90.80;;;;;;4961995;28;91501;-85
2023/08/31 00:21:30;;;;;;;94.95;53.25;;;17.30;91.20;;;;;;4961315;28;89102;-85
2023/08/31 00:23:55;;;;;;;95.20;53.53;;;17.20;90.60;;;;;;4965970;28;92948;-85
2023/08/31 00:26:21;;;;;;;94.80;53.15;;;17.20;90.60;;;;;;4965504;28;89829;-84
2023/08/31 00:28:47;;;;;;;93.60;53.13;;;17.20;90.80;;;;;;4965036;28;90150;-85
2023/08/31 00:31:12;;;;;;;92.88;52.97;;;17.20;90.60;;;;;;4966684;28;90505;-85
2023/08/31 00:33:38;;;;;;;95.03;52.75;;;17.20;90.80;;;;;;4965598;28;90271;-85
2023/08/31 00:36:05;;;;;;;93.20;52.88;;;17.20;90.40;;;;;;4966811;28;90897;-85
2023/08/31 00:38:31;;;;;;;93.25;52.97;;;17.20;91.00;;;;;;4958154;28;90165;-85
2023/08/31 00:40:57;;;;;;;94.28;53.25;;;17.20;90.90;;;;;;4969697;28;90169;-84
2023/08/31 00:43:23;;;;;;;93.60;53.15;;;17.20;90.70;;;;;;4960203;28;92254;-85
2023/08/31 00:45:51;;;;;;;95.18;53.35;;;17.20;90.80;;;;;;4963800;28;91544;-86
2023/08/31 00:48:17;;;;;;;93.47;53.13;;;17.20;90.80;;;;;;4965320;28;92968;-85
2023/08/31 00:50:47;;;;;;;93.10;53.00;;;17.20;90.90;;;;;;4968652;28;89589;-84
2023/08/31 00:53:13;;;;;;;95.43;53.45;;;17.20;90.70;;;;;;4942756;28;92792;-85
2023/08/31 00:55:40;;;;;;;94.05;53.28;;;17.10;90.90;;;;;;4957967;28;91292;-84
2023/08/31 00:58:06;;;;;;;93.45;53.15;;;17.10;90.90;;;;;;4964640;28;91210;-86
2023/08/31 01:00:40;;;;;;;94.25;53.38;;;17.20;90.90;;;;;;4963123;28;88729;-85
2023/08/31 01:03:11;;;;;;;92.53;52.80;;;17.20;90.60;;;;;;4962995;28;92963;-85
2023/08/31 01:05:52;;;;;;;93.28;52.88;;;17.10;91.20;;;;;;4958545;28;90208;-85
2023/08/31 01:08:38;;;;;;;94.43;53.33;;;17.20;90.50;;;;;;4962559;28;91635;-83
2023/08/31 01:11:13;;;;;;;94.05;53.30;;;17.10;90.60;;;;;;4969857;28;90334;-85
2023/08/31 01:13:44;;;;;;;93.68;53.17;;;17.10;90.70;;;;;;4962856;28;89757;-85
2023/08/31 01:16:10;;;;;;;95.88;53.85;;;17.10;90.60;;;;;;4965100;28;89570;-85
2023/08/31 01:18:39;;;;;;;94.18;53.20;;;17.10;90.60;;;;;;4963628;28;89720;-84
2023/08/31 01:21:24;;;;;;;93.95;53.22;;;17.10;90.70;;;;;;4960533;28;89437;-84
2023/08/31 01:23:55;;;;;;;92.40;52.85;;;17.10;90.60;;;;;;4967433;28;90417;-86
2023/08/31 01:26:22;;;;;;;94.13;52.92;;;17.10;90.60;;;;;;4963011;28;90026;-86
2023/08/31 01:28:48;;;;;;;93.43;52.75;;;17.10;90.90;;;;;;4979609;28;94880;-83
2023/08/31 01:31:15;;;;;;;93.68;52.97;;;17.10;90.50;;;;;;4961737;28;89432;-85
2023/08/31 01:33:41;;;;;;;93.65;52.83;;;17.10;90.60;;;;;;4962803;28;92919;-85
2023/08/31 01:36:25;;;;;;;94.45;53.28;;;17.10;90.60;;;;;;4964509;28;94759;-85
2023/08/31 01:39:19;;;;;;;93.00;53.08;;;17.10;90.60;;;;;;4955489;28;90505;-85
2023/08/31 01:41:51;;;;;;;91.57;52.47;;;17.10;90.50;;;;;;4910309;28;89602;-85
2023/08/31 01:44:18;;;;;;;;;;;17.10;90.70;;;;;;4964381;28;93396;-85
2023/08/31 01:46:46;;;;;;;92.18;52.90;;;17.10;90.70;;;;;;4966512;28;90688;-85
2023/08/31 01:49:14;;;;;;;94.82;53.25;;;17.10;90.70;;;;;;4958999;28;89374;-85
2023/08/31 01:51:39;;;;;;;94.40;53.20;;;17.10;90.80;;;;;;4960727;28;91338;-85
2023/08/31 01:54:05;;;;;;;93.32;53.20;;;17.10;91.00;;;;;;4965474;28;91507;-85
2023/08/31 01:56:31;;;;;;;93.50;53.13;;;17.10;90.70;;;;;;4981593;28;90426;-87
2023/08/31 01:58:56;;;;;;;92.47;52.83;;;17.10;90.60;;;;;;4981278;28;90927;-86
2023/08/31 02:01:22;;;;;;;94.18;52.97;;;17.10;90.60;;;;;;4981562;28;89734;-86
2023/08/31 02:03:47;;;;;;;93.68;52.92;;;17.10;90.70;;;;;;4971705;28;90425;-86
2023/08/31 02:06:13;;;;;;;92.50;52.83;;;17.10;90.80;;;;;;4974010;28;90175;-83
2023/08/31 02:08:38;;;;;;;94.18;53.42;;;17.00;90.80;;;;;;4976018;28;90403;-89
2023/08/31 02:11:04;;;;;;;94.63;53.28;;;17.10;90.70;;;;;;4979319;28;91227;-87
2023/08/31 02:13:30;;;;;;;94.57;53.25;;;17.00;90.50;;;;;;4964942;28;90061;-85
2023/08/31 02:15:56;;;;;;;92.57;52.88;;;17.00;90.50;;;;;;4963115;28;88914;-84
2023/08/31 02:18:21;;;;;;;94.85;53.58;;;17.00;90.60;;;;;;4965462;28;88906;-86
2023/08/31 02:20:47;;;;;;;94.00;53.22;;;17.00;90.80;;;;;;4963299;28;90063;-87
2023/08/31 02:23:13;;;;;;;94.15;53.25;;;17.00;90.70;;;;;;4969097;28;90952;-88
2023/08/31 02:25:38;;;;;;;93.00;52.88;;;17.00;90.70;;;;;;4964396;28;90766;-87
2023/08/31 02:28:04;;;;;;;93.22;53.05;;;17.00;90.90;;;;;;4962008;28;89777;-85
2023/08/31 02:30:30;;;;;;;92.70;52.92;;;17.00;90.80;;;;;;4962011;28;94126;-85
2023/08/31 02:32:55;;;;;;;92.93;52.85;;;17.00;91.10;;;;;;4968529;28;90526;-87
2023/08/31 02:35:21;;;;;;;93.57;52.95;;;16.90;90.90;;;;;;4965379;28;91213;-87
2023/08/31 02:37:47;;;;;;;93.50;53.13;;;17.00;90.80;;;;;;4962889;28;94980;-85
2023/08/31 02:40:12;;;;;;;93.53;52.60;;;16.90;91.10;;;;;;4972962;28;93326;-86
2023/08/31 02:42:38;;;;;;;93.47;52.95;;;16.90;91.20;;;;;;4965608;28;91925;-86
2023/08/31 02:45:04;;;;;;;93.95;53.28;;;16.90;91.00;;;;;;4992213;28;89444;-84
2023/08/31 02:47:30;;;;;;;94.05;53.22;;;16.90;91.10;;;;;;4990607;28;90100;-83
2023/08/31 02:49:56;;;;;;;95.15;53.53;;;16.90;90.90;;;;;;4959643;28;90031;-87
2023/08/31 02:52:22;;;;;;;95.72;53.10;;;16.80;91.20;;;;;;4966560;28;92280;-84
2023/08/31 02:54:47;;;;;;;94.28;52.80;;;16.80;91.20;;;;;;4964589;28;90815;-85
2023/08/31 02:57:13;;;;;;;93.80;53.35;;;16.80;91.10;;;;;;4970260;28;89514;-88
2023/08/31 02:59:38;;;;;;;92.50;52.97;;;16.80;90.90;;;;;;4970979;28;92774;-88
2023/08/31 03:02:04;;;;;;;93.57;53.25;;;16.80;91.00;;;;;;4968107;28;91041;-88
2023/08/31 03:04:30;;;;;;;92.22;52.72;;;16.80;90.90;;;;;;4967061;28;88861;-87
2023/08/31 03:06:56;;;;;;;93.80;53.28;;;16.70;91.00;;;;;;4965644;28;89275;-86
2023/08/31 03:09:22;;;;;;;94.13;53.22;;;16.70;91.00;;;;;;4969760;28;89905;-84
2023/08/31 03:11:47;;;;;;;92.68;52.65;;;16.70;91.20;;;;;;4963254;28;92435;-84
2023/08/31 03:14:13;;;;;;;92.82;52.92;;;16.70;91.10;;;;;;4967506;28;90701;-86
2023/08/31 03:16:38;;;;;;;94.50;53.05;;;16.70;91.20;;;;;;4964094;28;89600;-83
2023/08/31 03:19:04;;;;;;;93.60;52.88;;;16.70;91.30;;;;;;4960089;28;89451;-87
2023/08/31 03:21:30;;;;;;;92.90;53.00;;;16.60;91.20;;;;;;4966619;28;89938;-87
2023/08/31 03:23:55;;;;;;;93.60;52.67;;;16.60;91.30;;;;;;4957753;28;89591;-88
2023/08/31 03:26:21;;;;;;;91.90;52.60;;;16.60;91.20;;;;;;4969597;28;89735;-86
2023/08/31 03:28:47;;;;;;;92.30;52.80;;;16.60;91.50;;;;;;4956213;28;89808;-85
2023/08/31 03:31:12;;;;;;;92.57;52.78;;;16.60;91.50;;;;;;4964706;28;93324;-87
2023/08/31 03:33:38;;;;;;;94.30;53.05;;;16.50;91.50;;;;;;4957470;28;90178;-86
2023/08/31 03:36:04;;;;;;;93.55;53.05;;;16.50;91.40;;;;;;4963471;28;90047;-85
2023/08/31 03:38:31;;;;;;;93.30;52.88;;;16.50;91.40;;;;;;4961364;28;90073;-87
2023/08/31 03:40:57;;;;;;;92.25;52.70;;;16.50;91.40;;;;;;4955740;28;90211;-85
2023/08/31 03:43:23;;;;;;;93.50;53.05;;;16.50;91.60;;;;;;4969091;28;93681;-85
2023/08/31 03:45:55;;;;;;;92.47;52.38;;;16.50;91.60;;;;;;4960361;28;90672;-86
2023/08/31 03:48:21;;;;;;;93.88;52.88;;;16.40;91.40;;;;;;4955707;28;92634;-85
2023/08/31 03:50:52;;;;;;;93.60;52.70;;;16.40;91.60;;;;;;4961853;28;90414;-86
2023/08/31 03:53:18;;;;;;;92.03;52.53;;;16.40;91.60;;;;;;4967513;28;93265;-84
2023/08/31 03:55:44;;;;;;;91.72;52.65;;;16.40;91.70;;;;;;4962966;28;90480;-85
2023/08/31 03:58:10;;;;;;;92.68;52.58;;;16.40;91.80;;;;;;4968414;28;89541;-85
2023/08/31 04:00:36;;;;;;;92.13;52.80;;;16.40;91.70;;;;;;4965136;28;94605;-85
2023/08/31 04:03:02;;;;;;;94.00;53.03;;;16.30;91.80;;;;;;4957916;28;90118;-86
2023/08/31 04:05:32;;;;;;;93.25;52.58;;;16.30;91.60;;;;;;4968623;28;90943;-86
2023/08/31 04:07:58;;;;;;;92.32;52.30;;;16.30;92.00;;;;;;4965849;28;91534;-86
2023/08/31 04:10:25;;;;;;;91.28;52.45;;;16.30;92.10;;;;;;4958245;28;89451;-85
2023/08/31 04:12:51;;;;;;;94.07;52.75;;;16.30;91.70;;;;;;4961677;28;90482;-85
2023/08/31 04:15:17;;;;;;;91.28;52.47;;;16.30;91.70;;;;;;4959991;28;91701;-85
2023/08/31 04:17:43;;;;;;;94.85;52.85;;;16.30;91.70;;;;;;4966771;28;88241;-85
2023/08/31 04:20:09;;;;;;;92.80;52.53;;;16.30;91.70;;;;;;4959747;28;90417;-86
2023/08/31 04:22:35;;;;;;;93.38;52.92;;;16.30;92.00;;;;;;4962085;28;90079;-85
2023/08/31 04:25:00;;;;;;;91.72;52.55;;;16.20;91.80;;;;;;4961019;28;91573;-85
2023/08/31 04:27:27;;;;;;;93.95;52.67;;;16.30;91.90;;;;;;4970836;28;89364;-85
2023/08/31 04:29:53;;;;;;;91.88;52.67;;;16.20;91.80;;;;;;4962285;28;92328;-86
2023/08/31 04:32:18;;;;;;;92.47;52.65;;;16.20;92.10;;;;;;4967697;28;90015;-85
2023/08/31 04:34:44;;;;;;;92.65;52.35;;;16.20;92.70;;;;;;4947953;22;91426;-49
2023/08/31 04:37:09;;;;;;;91.63;52.10;;;16.20;92.10;;;;;;4896562;28;90784;-46
2023/08/31 04:39:35;;;;;;;92.70;52.33;;;16.20;92.10;;;;;;4905185;28;97132;-52
2023/08/31 04:42:01;;;;;;;92.38;52.45;;;16.20;91.80;;;;;;4896323;28;91114;-51
2023/08/31 04:44:26;;;;;;;94.35;52.55;;;16.10;91.90;;;;;;4893538;28;90857;-52
2023/08/31 04:46:52;;;;;;;93.13;52.40;;;16.10;91.80;;;;;;4892416;28;91585;-51
2023/08/31 04:49:18;;;;;;;92.50;52.33;;;16.10;92.10;;;;;;4897466;28;90793;-53
2023/08/31 04:51:44;;;;;;;91.82;52.55;;;16.10;92.40;;;;;;4902818;28;93547;-51
2023/08/31 04:54:10;;;;;;;91.68;52.25;;;16.10;92.40;;;;;;4901646;28;91428;-52
2023/08/31 04:56:36;;;;;;;93.78;52.58;;;16.10;92.80;;;;;;4892167;28;90093;-49
2023/08/31 04:59:04;;;;;;;92.65;52.78;;;16.10;92.80;;;;;;4905926;28;95871;-50
2023/08/31 05:01:30;;;;;;;92.50;52.40;;;16.00;92.50;;;;;;4899202;28;90473;-51
2023/08/31 05:03:55;;;;;;;93.03;52.50;;;16.00;92.40;;;;;;4898902;28;89526;-55
2023/08/31 05:06:21;;;;;;;92.90;52.35;;;16.00;92.80;;;;;;4894801;28;92079;-53
2023/08/31 05:08:48;;;;;;;91.68;51.88;;;16.00;93.00;;;;;;4885264;28;90983;-47
2023/08/31 05:11:14;;;;;;;91.30;51.97;;;16.00;93.10;;;;;;4875027;28;91527;-50
2023/08/31 05:13:42;;;;;;;93.65;52.40;;;16.00;92.80;;;;;;4879574;28;92621;-51
2023/08/31 05:16:08;;;;;;;97.97;52.33;;;16.00;93.00;;;;;;4889740;28;90718;-53
2023/08/31 05:18:34;;;;;;;92.50;52.58;;;16.00;92.30;;;;;;4904943;28;92077;-56
2023/08/31 05:20:59;;;;;;;93.90;52.63;;;16.00;92.90;;;;;;4900623;28;90857;-53
2023/08/31 05:23:25;;;;;;;93.25;52.65;;;16.00;93.30;;;;;;4897723;28;90639;-56
2023/08/31 05:25:51;;;;;;;94.60;52.28;;;16.00;93.20;;;;;;4897558;28;92168;-51
2023/08/31 05:28:17;;;;;;;92.10;52.22;;;15.90;92.90;;;;;;4896160;28;91565;-54
2023/08/31 05:30:55;;;;;;;93.35;52.42;;;15.90;93.40;;;;;;4901340;28;91912;-52
2023/08/31 05:33:22;;;;;;;92.47;52.33;;;15.90;93.50;;;;;;4895975;28;91847;-56
2023/08/31 05:35:48;;;;;;;94.95;52.65;;;15.90;93.30;;;;;;4877229;28;92593;-52
2023/08/31 05:38:14;;;;;;;94.70;52.97;;;16.00;93.50;;;;;;4881786;28;92015;-54
2023/08/31 05:40:41;;;;;;;95.78;52.85;;;16.00;93.30;;;;;;4876976;28;91305;-53
2023/08/31 05:43:07;;;;;;;97.20;53.30;;;15.90;93.10;;;;;;4881377;28;90598;-52
2023/08/31 05:45:34;;;;;;;96.25;53.70;;;15.90;93.50;;;;;;4885260;28;89527;-53
2023/08/31 05:48:00;;;;;;;96.65;53.50;;;15.90;93.30;;;;;;4880142;28;90627;-46
2023/08/31 05:50:26;;;;;;;98.50;53.78;;;15.90;93.90;;;;;;4879015;28;90804;-46
2023/08/31 05:52:54;;;;;;;95.80;53.83;;;16.10;95.40;;;;;;4882456;28;89557;-48
2023/08/31 05:55:20;;;;;;;95.75;53.38;;;16.20;94.60;;;;;;4878175;28;90669;-46
2023/08/31 05:57:45;;;;;;;99.75;53.90;;;16.30;94.60;;;;;;4876855;28;91328;-49
2023/08/31 06:00:13;;;;;;;101.43;53.75;;;16.30;93.90;;;;;;4879886;28;95818;-51
2023/08/31 06:02:38;;;;;;;115.40;55.05;;;16.40;93.70;;;;;;4879524;28;94829;-53
2023/08/31 06:05:05;;;;;;;113.60;55.17;;;16.60;93.40;;;;;;4885059;28;91753;-47
2023/08/31 06:07:31;;;;;;;111.32;54.58;;;16.60;92.00;;;;;;4881745;28;90599;-46
2023/08/31 06:09:57;;;;;;;107.50;54.55;;;16.60;92.10;;;;;;4867336;28;94581;-46
2023/08/31 06:12:23;;;;;;;109.30;55.15;;;16.10;89.30;;;;;;4874897;28;90389;-46
2023/08/31 06:14:49;;;;;;;108.90;54.60;;;15.50;91.40;;;;;;4888254;28;89896;-47
2023/08/31 06:17:15;;;;;;;109.47;54.70;;;15.20;91.80;;;;;;4875126;28;89836;-45
2023/08/31 06:19:42;;;;;;;110.43;54.35;;;15.00;93.20;;;;;;4880497;28;90831;-45
2023/08/31 06:22:08;;;;;;;107.43;53.70;;;14.80;93.70;;;;;;4880988;28;89676;-45
2023/08/31 06:24:34;;;;;;;108.28;54.00;;;14.60;94.10;;;;;;4886340;28;90275;-49
2023/08/31 06:27:00;;;;;;;108.68;54.20;;;14.70;94.80;;;;;;4881195;28;95123;-49
2023/08/31 06:29:26;;;;;;;106.50;54.38;;;14.70;94.20;;;;;;4883016;28;90560;-49
2023/08/31 06:31:52;;;;;;;108.70;53.90;;;14.70;94.90;;;;;;4882399;28;90828;-46
2023/08/31 06:34:17;;;;;;;110.68;54.22;;;14.60;94.40;;;;;;4878808;28;91566;-49
2023/08/31 06:36:43;;;;;;;109.40;54.15;;;14.60;94.80;;;;;;4897664;28;93000;-47
2023/08/31 06:39:09;;;;;;;108.78;54.00;;;14.60;94.60;;;;;;4879062;28;94243;-43
2023/08/31 06:41:34;;;;;;;105.85;54.20;;;14.60;95.20;;;;;;4897962;28;90809;-44
2023/08/31 06:44:01;;;;;;;109.43;54.17;;;14.60;95.40;;;;;;4887378;28;90251;-48
2023/08/31 06:46:27;;;;;;;108.20;53.78;;;14.60;95.70;;;;;;4888718;28;92669;-46
2023/08/31 06:48:55;;;;;;;109.25;54.35;;;14.60;95.80;;;;;;4895921;28;94991;-47
2023/08/31 06:51:21;;;;;;;105.68;54.15;;;14.60;95.20;;;;;;4897583;28;90973;-46
2023/08/31 06:53:46;;;;;;;106.85;53.65;;;14.60;96.00;;;;;;4905911;28;92363;-46
2023/08/31 06:56:12;;;;;;;101.88;53.50;;;14.60;95.10;;;;;;4899519;28;91297;-45
2023/08/31 06:58:38;;;;;;;107.32;54.20;;;14.70;95.80;;;;;;4891524;28;93201;-44
2023/08/31 07:01:06;;;;;;;102.10;53.53;;;14.70;96.40;;;;;;4901668;28;92175;-47
2023/08/31 07:03:31;;;;;;;105.18;54.20;;;14.70;96.40;;;;;;4902613;28;92120;-44
2023/08/31 07:05:57;;;;;;;103.88;53.83;;;14.80;96.90;;;;;;4902107;28;89829;-48
2023/08/31 07:08:23;;;;;;;104.53;54.42;;;14.80;96.70;;;;;;4905727;28;90335;-46
2023/08/31 07:10:51;;;;;;;106.55;54.65;;;14.90;96.30;;;;;;4901348;28;92559;-47
2023/08/31 07:13:17;;;;;;;109.43;54.40;;;14.90;95.90;;;;;;4897004;28;90935;-45
2023/08/31 07:15:43;;;;;;;105.40;53.95;;;15.00;95.50;;;;;;4903205;28;94010;-46
2023/08/31 07:18:09;;;;;;;103.47;53.92;;;14.90;95.30;;;;;;4908121;28;93758;-46
2023/08/31 07:20:34;;;;;;;103.68;54.25;;;15.00;95.00;;;;;;4906908;28;91715;-50
2023/08/31 07:23:00;;;;;;;104.88;54.30;;;15.00;95.20;;;;;;4897814;28;90398;-47
2023/08/31 07:25:25;;;;;;;109.28;54.30;;;15.00;95.70;;;;;;4904939;28;90054;-47
2023/08/31 07:27:52;;;;;;;108.80;54.22;;;15.00;95.40;;;;;;4904395;28;89869;-46
2023/08/31 07:30:17;;;;;;;108.13;54.30;;;15.00;95.20;;;;;;4906334;28;89984;-53
2023/08/31 07:32:43;;;;;;;104.63;54.00;;;15.20;95.60;;;;;;4901866;28;94698;-48
2023/08/31 07:35:09;;;;;;;104.75;53.30;;;15.20;95.00;;;;;;4900637;28;89950;-47
2023/08/31 07:37:35;;;;;;;107.13;53.67;;;15.40;96.00;;;;;;4912514;28;89977;-47
2023/08/31 07:40:00;;;;;;;110.13;53.95;;;15.90;94.80;;;;;;4920941;28;94805;-48
2023/08/31 07:42:26;;;;;;;110.25;54.15;;;16.20;92.50;;;;;;4915896;28;89874;-47
2023/08/31 07:44:52;;;;;;;107.28;53.70;;;16.40;92.10;;;;;;4913995;28;89487;-47
2023/08/31 07:47:17;;;;;;;106.55;53.95;;;16.60;91.70;;;;;;4912454;28;89493;-51
2023/08/31 07:49:44;;;;;;;111.00;54.45;;;16.70;91.40;;;;;;4910565;28;90801;-47
2023/08/31 07:52:09;;;;;;;109.10;54.58;;;16.70;91.20;;;;;;4910214;28;89685;-48
2023/08/31 07:54:35;;;;;;;107.13;54.65;;;16.80;91.20;;;;;;4912306;28;91488;-52
2023/08/31 07:57:01;;;;;;;109.13;54.30;;;16.90;91.50;;;;;;4917634;28;92920;-48
2023/08/31 07:59:27;;;;;;;108.00;54.47;;;17.00;90.60;;;;;;4912517;28;92820;-49
2023/08/31 08:01:53;;;;;;;108.72;54.67;;;17.00;91.10;;;;;;4916727;28;89100;-48
2023/08/31 08:04:19;;;;;;;108.90;54.45;;;17.10;91.30;;;;;;4906069;28;92965;-52
2023/08/31 08:06:45;;;;;;;109.55;54.65;;;17.20;91.00;;;;;;4900350;28;91307;-46
2023/08/31 08:09:12;;;;;;;108.10;54.60;;;17.30;90.60;;;;;;4907713;28;89616;-49
2023/08/31 08:11:37;;;;;;;109.85;54.72;;;17.40;90.40;;;;;;4905196;28;90041;-50
2023/08/31 08:14:03;;;;;;;107.15;54.63;;;17.40;91.30;;;;;;4903001;28;89711;-43
2023/08/31 08:16:29;;;;;;;109.45;55.10;;;17.50;90.10;;;;;;4906469;28;89501;-44
2023/08/31 08:18:54;;;;;;;106.78;54.58;;;17.60;90.60;;;;;;4884213;28;90765;-52
2023/08/31 08:21:20;;;;;;;107.80;54.78;;;17.60;90.50;;;;;;4902413;28;89593;-46
2023/08/31 08:23:46;;;;;;;108.40;54.53;;;17.70;89.80;;;;;;4906447;28;90166;-48
2023/08/31 08:26:11;;;;;;;109.82;54.83;;;17.80;90.60;;;;;;4898080;28;90684;-46
2023/08/31 08:28:37;;;;;;;108.90;54.85;;;17.90;90.10;;;;;;4906171;28;92888;-47
2023/08/31 08:31:06;;;;;;;107.78;54.78;;;17.90;90.70;;;;;;4888337;28;91524;-50
2023/08/31 08:33:31;;;;;;;109.03;54.75;;;18.00;90.00;;;;;;4911234;28;91009;-44
2023/08/31 08:35:57;;;;;;;108.82;54.72;;;18.00;90.20;;;;;;4906998;28;91624;-45
2023/08/31 08:38:23;;;;;;;107.40;54.80;;;18.10;89.00;;;;;;4901772;28;90428;-49
2023/08/31 08:40:48;;;;;;;110.93;55.15;;;18.20;89.60;;;;;;4902374;28;95086;-45
2023/08/31 08:43:14;;;;;;;108.15;54.85;;;18.30;88.30;;;;;;4908902;28;89575;-58
2023/08/31 08:45:42;;;;;;;110.45;55.20;;;18.30;87.70;;;;;;4910247;28;89122;-47
2023/08/31 08:48:08;;;;;;;110.10;54.90;;;18.30;89.30;;;;;;4904809;28;91570;-49
2023/08/31 08:50:36;;;;;;;108.10;54.90;;;18.40;88.80;;;;;;4904903;28;91062;-48
2023/08/31 08:53:03;;;;;;;107.50;54.55;;;18.40;89.10;;;;;;4897236;28;91160;-47
2023/08/31 08:55:28;;;;;;;108.57;54.72;;;18.50;87.40;;;;;;4907609;28;89984;-48
2023/08/31 08:57:55;;;;;;;106.88;54.55;;;18.60;88.70;;;;;;4898864;28;91403;-51
2023/08/31 09:00:21;;;;;;;108.72;54.83;;;18.60;87.10;;;;;;4905914;28;89473;-50
2023/08/31 09:02:46;;;;;;;107.30;54.90;;;18.60;87.40;;;;;;4884549;28;92373;-49
2023/08/31 09:05:12;;;;;;;106.90;54.45;;;18.60;87.80;;;;;;4905692;28;90658;-48
2023/08/31 09:07:38;;;;;;;106.80;54.42;;;18.70;87.20;;;;;;4898653;28;93201;-47
2023/08/31 09:10:05;;;;;;;106.65;54.53;;;18.70;87.00;;;;;;4903288;28;89862;-50
2023/08/31 09:12:31;;;;;;;111.28;54.80;;;18.80;87.10;;;;;;4902939;28;90542;-49
2023/08/31 09:15:01;;;;;;;109.35;55.05;;;18.90;87.90;;;;;;4907964;28;90029;-49
2023/08/31 09:17:36;;;;;;;107.93;54.90;;;18.90;86.30;;;;;;4904624;28;92820;-46
2023/08/31 09:20:06;;;;;;;108.57;54.95;;;18.90;86.40;;;;;;4908016;28;93151;-48
2023/08/31 09:22:33;;;;;;;108.43;55.03;;;19.00;87.50;;;;;;4898319;28;90110;-49
2023/08/31 09:24:59;;;;;;;110.18;54.75;;;19.10;87.30;;;;;;4906598;28;90584;-51
2023/08/31 09:27:24;;;;;;;109.85;55.20;;;19.10;86.00;;;;;;4909544;28;89872;-50
2023/08/31 09:29:54;;;;;;;110.22;55.15;;;19.20;86.10;;;;;;4915125;28;91092;-45
2023/08/31 09:32:19;;;;;;;109.93;54.97;;;19.30;85.20;;;;;;4907977;28;90170;-53
2023/08/31 09:34:45;;;;;;;109.18;54.92;;;19.30;85.90;;;;;;4910421;28;89785;-54
2023/08/31 09:37:11;;;;;;;108.82;55.13;;;19.40;85.50;;;;;;4909728;28;89901;-48
2023/08/31 09:39:41;;;;;;;108.93;55.25;;;19.40;86.40;;;;;;4909861;28;90892;-50
2023/08/31 09:42:06;;;;;;;109.00;55.15;;;19.40;84.70;;;;;;4900697;28;91072;-46
2023/08/31 09:44:32;;;;;;;108.43;55.15;;;19.50;85.40;;;;;;4902075;28;90469;-47
2023/08/31 09:46:58;;;;;;;108.00;54.97;;;19.50;85.70;;;;;;4904527;28;91814;-50
2023/08/31 09:49:25;;;;;;;108.20;55.00;;;19.50;86.40;;;;;;4901108;28;93088;-51
2023/08/31 09:51:52;;;;;;;111.97;55.25;;;19.60;84.60;;;;;;4907638;28;90345;-51
2023/08/31 09:54:23;;;;;;;108.40;54.97;;;19.70;85.30;;;;;;4902639;28;90038;-54
2023/08/31 09:56:50;;;;;;;108.93;54.97;;;19.80;83.60;;;;;;4907128;28;89596;-54
2023/08/31 09:59:16;;;;;;;108.45;54.90;;;19.80;83.80;;;;;;4903693;28;89716;-49
2023/08/31 10:01:44;;;;;;;108.47;55.05;;;19.90;83.40;;;;;;4901561;28;90903;-45
2023/08/31 10:04:12;;;;;;;109.35;55.28;;;19.90;83.70;;;;;;4911555;28;90199;-51
2023/08/31 10:06:42;;;;;;;108.20;55.05;;;20.00;82.50;;;;;;4912289;28;92293;-51
2023/08/31 10:09:11;;;;;;;108.45;55.17;;;20.00;82.40;;;;;;4918157;28;94778;-50
2023/08/31 10:11:39;;;;;;;111.60;55.35;;;20.00;83.80;;;;;;4917305;28;89886;-54
2023/08/31 10:14:04;;;;;;;110.35;55.03;;;20.10;83.60;;;;;;4917210;28;89853;-50
2023/08/31 10:16:31;;;;;;;109.82;55.65;;;20.20;83.90;;;;;;4912101;28;90950;-55
2023/08/31 10:18:57;;;;;;;110.10;55.67;;;20.20;83.80;;;;;;4908111;28;89621;-49
2023/08/31 10:21:23;;;;;;;109.88;55.10;;;20.30;82.90;;;;;;4914904;28;89982;-53
2023/08/31 10:23:49;;;;;;;110.32;55.92;;;20.30;81.40;;;;;;4901455;28;89668;-52
2023/08/31 10:26:31;;;;;;;112.03;55.72;;;20.30;81.90;;;;;;4915396;28;92746;-50
2023/08/31 10:28:58;;;;;;;109.85;55.53;;;20.40;82.00;;;;;;4910065;28;90682;-50
2023/08/31 10:31:28;;;;;;;112.78;55.85;;;20.50;82.20;;;;;;4914782;28;92355;-46
2023/08/31 10:34:00;;;;;;;109.07;55.33;;;20.50;81.50;;;;;;4909751;28;90853;-48
2023/08/31 10:36:40;;;;;;;110.22;55.38;;;20.60;81.50;;;;;;4918341;28;89685;-47
2023/08/31 10:39:16;;;;;;;110.05;55.80;;;20.60;81.30;;;;;;4904527;28;91091;-46
2023/08/31 10:41:51;;;;;;;109.72;55.28;;;20.70;80.50;;;;;;4906529;28;90801;-45
2023/08/31 10:44:28;;;;;;;110.05;55.67;;;20.70;80.30;;;;;;4908157;28;97081;-52
2023/08/31 10:46:54;;;;;;;109.60;55.58;;;20.80;80.30;;;;;;4910348;28;89676;-54
2023/08/31 10:49:21;;;;;;;109.22;55.33;;;20.80;78.90;;;;;;4907932;28;90320;-52
2023/08/31 10:51:49;;;;;;;109.78;55.53;;;20.80;78.60;;;;;;4914067;28;90254;-49
2023/08/31 10:54:34;;;;;;;110.82;55.47;;;20.80;80.30;;;;;;4905876;28;95350;-51
2023/08/31 10:57:00;;;;;;;110.32;55.47;;;20.80;80.50;;;;;;4903470;28;91506;-46
2023/08/31 10:59:40;;;;;;;109.93;55.35;;;20.90;79.70;;;;;;4916419;28;90860;-46
2023/08/31 11:02:06;;;;;;;110.68;56.13;;;20.90;79.60;;;;;;4914807;28;89656;-47
2023/08/31 11:04:52;;;;;;;113.18;56.30;;;20.90;79.30;;;;;;4914390;28;91782;-47
2023/08/31 11:07:23;;;;;;;113.35;56.20;;;20.90;70.00;;;;;;4910934;28;90694;-46
2023/08/31 11:09:48;;;;;;;111.53;55.67;;;20.90;72.40;;;;;;4907502;28;90116;-49
2023/08/31 11:12:14;;;;;;;115.50;56.00;;;20.90;70.60;;;;;;4914081;28;90466;-45
2023/08/31 11:14:40;;;;;;;111.65;56.00;;;21.00;70.50;;;;;;4907708;28;91293;-46
2023/08/31 11:17:07;;;;;;;111.85;56.00;;;20.90;68.60;;;;;;4907599;28;90912;-48
2023/08/31 11:19:33;;;;;;;115.05;56.60;;;20.80;67.30;;;;;;4912710;28;91877;-47
2023/08/31 11:22:02;;;;;;;114.97;56.60;;;20.90;69.00;;;;;;4910552;28;90986;-46
2023/08/31 11:24:28;;;;;;;113.40;56.42;;;21.00;69.60;;;;;;4911996;28;92452;-48
2023/08/31 11:26:55;;;;;;;114.65;56.17;;;21.00;67.00;;;;;;4907177;28;90115;-46
2023/08/31 11:29:20;;;;;;;115.35;56.85;;;21.10;69.30;;;;;;4908507;28;91437;-45
2023/08/31 11:31:46;;;;;;;114.68;56.58;;;21.10;66.80;;;;;;4906300;28;91504;-46
2023/08/31 11:34:14;;;;;;;111.88;56.55;;;21.10;66.50;;;;;;4909430;28;91886;-45
2023/08/31 11:36:41;;;;;;;114.72;56.63;;;21.20;68.70;;;;;;4916557;28;90076;-46
2023/08/31 11:39:08;;;;;;;113.15;56.42;;;21.20;66.60;;;;;;4916673;28;89412;-45
2023/08/31 11:41:36;;;;;;;112.00;56.40;;;21.10;65.30;;;;;;4914048;28;89522;-46
2023/08/31 11:44:03;;;;;;;114.63;57.03;;;21.20;65.90;;;;;;4914861;28;91092;-46
2023/08/31 11:46:30;;;;;;;113.63;56.45;;;21.30;64.00;;;;;;4910618;28;91041;-46
2023/08/31 11:48:55;;;;;;;112.97;56.92;;;21.40;64.40;;;;;;4918613;28;89183;-45
2023/08/31 11:51:22;;;;;;;114.22;56.50;;;21.40;66.00;;;;;;4903155;28;90782;-47
2023/08/31 11:53:47;;;;;;;112.55;56.85;;;21.40;66.10;;;;;;4908528;28;91040;-45
2023/08/31 11:56:13;;;;;;;114.03;56.28;;;21.20;65.00;;;;;;4907840;28;91619;-48
2023/08/31 11:58:42;;;;;;;112.25;56.35;;;21.40;66.60;;;;;;4913569;28;89733;-48
2023/08/31 12:01:08;;;;;;;114.50;57.20;;;21.50;67.90;;;;;;4910354;28;90877;-47
2023/08/31 12:03:44;;;;;;;113.97;56.45;;;21.50;67.90;;;;;;4911141;28;94324;-52
2023/08/31 12:06:10;;;;;;;113.22;56.88;;;21.60;68.60;;;;;;4914354;28;89502;-51
2023/08/31 12:08:37;;;;;;;114.30;56.88;;;21.50;66.30;;;;;;4912943;28;89964;-45
2023/08/31 12:11:02;;;;;;;115.55;57.30;;;21.60;68.50;;;;;;4913523;28;94957;-45
2023/08/31 12:13:28;;;;;;;114.47;57.38;;;21.50;66.10;;;;;;4915717;28;91625;-44
2023/08/31 12:15:55;;;;;;;117.03;57.33;;;21.50;68.80;;;;;;4914938;28;91366;-46
2023/08/31 12:18:21;;;;;;;114.43;57.28;;;21.60;67.90;;;;;;4910119;28;90871;-44
2023/08/31 12:20:50;;;;;;;115.57;57.20;;;21.50;63.90;;;;;;4907025;28;90118;-49
2023/08/31 12:23:16;;;;;;;115.40;57.33;;;21.50;68.30;;;;;;4911385;28;90353;-46